Time;durP1;ratioP1;P1;durP2;ratioP2;P2;SDS_P1;SDS_P2;PMS_P1;PMS_P2;Temp;Humidity;BMP_temperature;BMP_pressure;BME280_temperature;BME280_humidity;BME280_pressure;Samples;Min_cycle;Max_cycle;Signal;HPM_P1;HPM_P2
2022/08/10 00:02:18;;;;;;;4.82;3.45;;;22.50;54.20;;;;;;4995087;28;20093;-14
2022/08/10 00:04:44;;;;;;;3.85;3.13;;;22.50;54.50;;;;;;4995749;28;20050;-14
2022/08/10 00:07:10;;;;;;;5.93;3.00;;;22.40;54.50;;;;;;4995446;28;20061;-15
2022/08/10 00:09:36;;;;;;;5.95;3.40;;;22.40;54.50;;;;;;4994568;28;20126;-14
2022/08/10 00:12:02;;;;;;;8.55;3.40;;;22.40;54.60;;;;;;4995445;28;20062;-13
2022/08/10 00:14:29;;;;;;;6.75;3.60;;;22.40;54.50;;;;;;4994998;28;20081;-14
2022/08/10 00:16:55;;;;;;;10.90;3.80;;;22.40;54.50;;;;;;4994012;28;20026;-13
2022/08/10 00:19:21;;;;;;;7.22;3.20;;;22.50;54.40;;;;;;4995235;28;20033;-13
2022/08/10 00:21:47;;;;;;;6.25;3.10;;;22.50;54.10;;;;;;4995168;28;20030;-14
2022/08/10 00:24:14;;;;;;;5.95;3.40;;;22.50;54.20;;;;;;4995001;28;20030;-14
2022/08/10 00:26:40;;;;;;;5.85;3.33;;;22.50;54.30;;;;;;4995351;28;20054;-14
2022/08/10 00:29:06;;;;;;;5.05;3.30;;;22.50;54.40;;;;;;4995432;28;20026;-13
2022/08/10 00:31:32;;;;;;;4.55;3.25;;;22.50;54.30;;;;;;4995118;28;20034;-13
2022/08/10 00:33:58;;;;;;;5.75;3.25;;;22.40;54.90;;;;;;4995049;28;20398;-14
2022/08/10 00:36:24;;;;;;;6.80;4.05;;;22.40;55.00;;;;;;4994627;28;20117;-13
2022/08/10 00:38:50;;;;;;;9.27;4.30;;;22.40;55.50;;;;;;4993630;28;20041;-15
2022/08/10 00:41:16;;;;;;;7.10;3.85;;;22.40;55.90;;;;;;4994031;28;20022;-13
2022/08/10 00:43:42;;;;;;;8.43;3.63;;;22.30;56.30;;;;;;4994743;28;20031;-15
2022/08/10 00:46:08;;;;;;;6.30;3.33;;;22.30;56.10;;;;;;4994559;28;20025;-14
2022/08/10 00:48:34;;;;;;;5.95;3.63;;;22.20;56.10;;;;;;4994386;28;20030;-13
2022/08/10 00:51:00;;;;;;;4.65;3.20;;;22.30;56.40;;;;;;4994517;28;20395;-13
2022/08/10 00:53:29;;;;;;;7.85;3.78;;;22.20;56.20;;;;;;4994884;28;20077;-15
2022/08/10 00:55:56;;;;;;;3.80;3.40;;;22.20;56.40;;;;;;4994488;28;20035;-14
2022/08/10 00:58:23;;;;;;;4.25;3.20;;;22.20;56.40;;;;;;4994661;28;20034;-14
2022/08/10 01:00:49;;;;;;;3.88;3.47;;;22.20;56.40;;;;;;4994471;28;20137;-14
2022/08/10 01:03:15;;;;;;;4.70;3.67;;;22.10;56.20;;;;;;4994523;28;20022;-14
2022/08/10 01:06:28;;;;;;;5.65;3.20;;;22.10;56.30;;;;;;4977273;28;20032;-13
2022/08/10 01:09:24;;;;;;;4.25;3.60;;;22.00;56.70;;;;;;4980150;28;20031;-15
2022/08/10 01:12:06;;;;;;;6.40;3.60;;;22.00;56.30;;;;;;4994176;28;20045;-14
2022/08/10 01:14:47;;;;;;;4.55;3.05;;;21.90;56.30;;;;;;4994176;28;20034;-15
2022/08/10 01:17:38;;;;;;;5.40;3.03;;;21.90;56.10;;;;;;4994382;28;20029;-14
2022/08/10 01:20:29;;;;;;;3.72;3.28;;;21.90;56.50;;;;;;4994025;28;20034;-15
2022/08/10 01:23:10;;;;;;;4.57;3.08;;;21.80;56.20;;;;;;4994379;28;20026;-14
2022/08/10 01:26:06;;;;;;;3.50;3.00;;;21.80;55.80;;;;;;4994093;28;20037;-14
2022/08/10 01:29:06;;;;;;;4.07;3.10;;;21.70;55.80;;;;;;4993915;28;20026;-16
2022/08/10 01:31:39;;;;;;;5.82;3.45;;;21.70;55.60;;;;;;4993639;28;20042;-16
2022/08/10 01:34:12;;;;;;;4.38;3.20;;;21.60;55.50;;;;;;4992766;28;20105;-13
2022/08/10 01:36:46;;;;;;;3.47;2.92;;;21.60;55.50;;;;;;4994485;28;20023;-13
2022/08/10 01:39:19;;;;;;;7.10;2.88;;;21.60;55.50;;;;;;4993876;28;20058;-15
2022/08/10 01:41:50;;;;;;;4.30;3.08;;;21.50;55.60;;;;;;4993904;28;20110;-15
2022/08/10 01:44:24;;;;;;;6.45;3.40;;;21.50;55.70;;;;;;4993559;28;20073;-15
2022/08/10 01:46:54;;;;;;;4.00;2.92;;;21.40;56.10;;;;;;4993720;28;20026;-16
2022/08/10 01:49:22;;;;;;;6.47;3.80;;;21.40;56.20;;;;;;4992388;28;20097;-15
2022/08/10 01:52:00;;;;;;;4.70;2.88;;;21.30;56.50;;;;;;4993760;28;20118;-14
2022/08/10 01:54:27;;;;;;;3.20;2.90;;;21.20;56.50;;;;;;4993491;28;20019;-14
2022/08/10 01:56:56;;;;;;;6.35;3.08;;;21.20;56.40;;;;;;4994139;28;20077;-14
2022/08/10 01:59:35;;;;;;;4.43;3.17;;;21.10;56.40;;;;;;4993682;28;20026;-14
2022/08/10 02:02:05;;;;;;;3.75;3.15;;;21.10;56.50;;;;;;4993386;28;20401;-13
2022/08/10 02:04:36;;;;;;;5.18;3.22;;;21.00;56.60;;;;;;4992240;28;20517;-13
2022/08/10 02:07:04;;;;;;;4.20;3.00;;;21.00;56.70;;;;;;4994064;28;20022;-13
2022/08/10 02:09:41;;;;;;;6.10;3.33;;;20.90;56.90;;;;;;4993492;28;20035;-13
2022/08/10 02:12:10;;;;;;;5.18;3.13;;;20.90;56.90;;;;;;4993859;28;20027;-16
2022/08/10 02:15:00;;;;;;;4.47;3.22;;;20.90;57.00;;;;;;4993631;28;20034;-14
2022/08/10 02:17:36;;;;;;;5.60;3.40;;;20.80;57.40;;;;;;4992998;28;20038;-14
2022/08/10 02:20:07;;;;;;;4.53;3.30;;;20.80;57.60;;;;;;4994106;28;20034;-14
2022/08/10 02:22:34;;;;;;;5.65;3.42;;;20.70;57.70;;;;;;4993627;28;20104;-14
2022/08/10 02:25:01;;;;;;;4.65;3.13;;;20.60;57.80;;;;;;4993817;28;20077;-14
2022/08/10 02:27:29;;;;;;;4.15;3.10;;;20.50;57.80;;;;;;4993624;28;20022;-14
2022/08/10 02:29:57;;;;;;;6.60;3.10;;;20.50;58.10;;;;;;4993310;28;20073;-14
2022/08/10 02:32:25;;;;;;;3.40;2.80;;;20.50;58.20;;;;;;4992426;28;20371;-14
2022/08/10 02:34:54;;;;;;;4.03;3.10;;;20.50;58.20;;;;;;4997137;28;20074;-14
2022/08/10 02:37:25;;;;;;;4.72;2.88;;;20.40;58.60;;;;;;4997318;28;20018;-14
2022/08/10 02:39:52;;;;;;;3.33;2.90;;;20.40;58.70;;;;;;4997245;28;20030;-14
2022/08/10 02:42:41;;;;;;;3.15;2.85;;;20.40;58.70;;;;;;4996830;28;20029;-14
2022/08/10 02:45:18;;;;;;;4.80;3.03;;;20.40;58.80;;;;;;4997420;28;20042;-14
2022/08/10 02:48:37;;;;;;;3.75;3.03;;;20.40;58.70;;;;;;4997224;28;20026;-14
2022/08/10 02:51:10;;;;;;;5.95;3.55;;;20.30;59.10;;;;;;4936958;29;20039;-14
2022/08/10 02:53:51;;;;;;;4.67;3.23;;;20.20;59.30;;;;;;4937061;29;20047;-14
2022/08/10 02:56:45;;;;;;;4.10;2.85;;;20.10;59.50;;;;;;4936810;29;20055;-14
2022/08/10 02:59:15;;;;;;;4.80;3.05;;;20.00;59.40;;;;;;4920940;29;20496;-16
2022/08/10 03:01:44;;;;;;;4.35;2.92;;;19.90;59.50;;;;;;4936541;29;20052;-15
2022/08/10 03:04:22;;;;;;;5.53;2.85;;;19.90;59.70;;;;;;4936704;29;20027;-13
2022/08/10 03:06:55;;;;;;;4.82;3.10;;;19.90;59.90;;;;;;4936762;29;20028;-14
2022/08/10 03:09:24;;;;;;;5.15;3.13;;;19.90;59.90;;;;;;4936741;29;20024;-14
2022/08/10 03:11:53;;;;;;;3.88;3.47;;;19.90;60.00;;;;;;4936819;29;20050;-15
2022/08/10 03:14:20;;;;;;;3.95;3.05;;;19.80;60.10;;;;;;4936318;29;20114;-16
2022/08/10 03:16:49;;;;;;;5.07;3.75;;;19.80;60.60;;;;;;4936457;29;20063;-16
2022/08/10 03:19:16;;;;;;;5.10;3.40;;;19.80;60.70;;;;;;4936513;29;20117;-15
2022/08/10 03:21:44;;;;;;;4.28;3.30;;;19.70;60.70;;;;;;4936777;29;20511;-15
2022/08/10 03:24:10;;;;;;;5.03;3.72;;;19.70;60.70;;;;;;4953293;28;20035;-14
2022/08/10 03:26:38;;;;;;;7.25;3.55;;;19.70;60.80;;;;;;4995971;28;20463;-14
2022/08/10 03:29:06;;;;;;;5.53;3.80;;;19.70;60.90;;;;;;4996450;28;20121;-14
2022/08/10 03:31:33;;;;;;;6.40;3.85;;;19.70;61.00;;;;;;4996139;28;20097;-14
2022/08/10 03:34:04;;;;;;;6.75;4.07;;;19.60;61.30;;;;;;4996051;28;20029;-16
2022/08/10 03:36:30;;;;;;;8.38;4.63;;;19.60;61.80;;;;;;4996014;28;20027;-14
2022/08/10 03:38:57;;;;;;;6.00;3.85;;;19.50;62.30;;;;;;4996540;28;20038;-14
2022/08/10 03:41:40;;;;;;;11.02;4.03;;;19.50;62.30;;;;;;4996116;28;20030;-14
2022/08/10 03:44:09;;;;;;;7.18;4.28;;;19.50;62.60;;;;;;4996050;28;20532;-14
2022/08/10 03:46:40;;;;;;;4.13;3.50;;;19.40;62.70;;;;;;4995596;28;20022;-14
2022/08/10 03:49:07;;;;;;;4.43;3.40;;;19.40;62.80;;;;;;4996674;28;20041;-13
2022/08/10 03:51:34;;;;;;;4.07;3.33;;;19.30;62.80;;;;;;4996000;28;20058;-14
2022/08/10 03:54:02;;;;;;;6.15;3.83;;;19.30;63.00;;;;;;4995963;28;20034;-14
2022/08/10 03:56:29;;;;;;;4.95;3.47;;;19.20;63.10;;;;;;4995862;28;20056;-15
2022/08/10 03:58:56;;;;;;;6.85;3.72;;;19.20;63.40;;;;;;4996005;28;20042;-16
2022/08/10 04:01:23;;;;;;;5.35;3.70;;;19.10;63.70;;;;;;4995700;28;20049;-14
2022/08/10 04:03:49;;;;;;;4.50;3.22;;;19.10;64.00;;;;;;4996046;28;20089;-14
2022/08/10 04:06:16;;;;;;;4.05;3.33;;;19.00;64.50;;;;;;4995350;28;20030;-15
2022/08/10 04:08:43;;;;;;;7.13;4.18;;;19.00;64.60;;;;;;4995771;28;20057;-16
2022/08/10 04:11:10;;;;;;;7.05;4.35;;;18.90;65.10;;;;;;4995605;28;20035;-14
2022/08/10 04:13:37;;;;;;;6.78;4.13;;;18.90;65.00;;;;;;4995250;28;20022;-14
2022/08/10 04:16:04;;;;;;;5.97;4.13;;;18.90;65.30;;;;;;4995494;28;20077;-14
2022/08/10 04:18:31;;;;;;;8.00;4.75;;;18.90;65.40;;;;;;4995034;28;20023;-14
2022/08/10 04:21:11;;;;;;;8.98;4.10;;;18.90;66.30;;;;;;4995486;28;20014;-14
2022/08/10 04:23:42;;;;;;;6.82;3.80;;;18.90;66.10;;;;;;4995373;28;20026;-14
2022/08/10 04:26:09;;;;;;;5.50;3.67;;;18.90;65.50;;;;;;4995277;28;20069;-14
2022/08/10 04:28:35;;;;;;;4.90;3.55;;;18.90;65.90;;;;;;4995150;28;20390;-14
2022/08/10 04:31:03;;;;;;;5.72;3.90;;;18.80;66.00;;;;;;4995263;28;20478;-14
2022/08/10 04:33:32;;;;;;;5.75;3.75;;;18.80;65.80;;;;;;4995199;28;20466;-15
2022/08/10 04:35:59;;;;;;;5.38;3.58;;;18.90;65.80;;;;;;4995124;28;20113;-15
2022/08/10 04:38:27;;;;;;;9.43;5.22;;;18.90;65.60;;;;;;4994723;28;20023;-15
2022/08/10 04:40:55;;;;;;;7.40;3.92;;;18.90;66.10;;;;;;4994800;28;20169;-15
2022/08/10 04:43:20;;;;;;;9.30;4.80;;;18.90;66.40;;;;;;4994780;28;20033;-14
2022/08/10 04:45:46;;;;;;;15.98;6.45;;;18.90;66.60;;;;;;4995054;28;20031;-14
2022/08/10 04:48:12;;;;;;;8.68;4.38;;;18.90;67.20;;;;;;4994696;28;20030;-14
2022/08/10 04:50:38;;;;;;;9.20;4.45;;;18.90;67.10;;;;;;4994577;28;20066;-15
2022/08/10 04:53:04;;;;;;;7.70;3.85;;;19.00;67.20;;;;;;4994897;28;20092;-14
2022/08/10 04:55:30;;;;;;;8.35;4.85;;;19.00;67.00;;;;;;4994412;28;20030;-14
2022/08/10 04:57:56;;;;;;;7.80;4.47;;;19.10;66.60;;;;;;4994858;28;20031;-16
2022/08/10 05:00:22;;;;;;;5.53;3.78;;;19.10;66.10;;;;;;4994176;28;20026;-14
2022/08/10 05:02:48;;;;;;;9.48;4.38;;;19.20;65.90;;;;;;4994457;28;20113;-16
2022/08/10 05:05:14;;;;;;;7.10;4.03;;;19.30;65.90;;;;;;4994720;28;20038;-14
2022/08/10 05:07:40;;;;;;;11.77;5.97;;;19.40;65.50;;;;;;4994638;28;20030;-15
2022/08/10 05:10:06;;;;;;;9.10;4.88;;;19.40;65.20;;;;;;4994235;28;20064;-14
2022/08/10 05:12:34;;;;;;;9.98;4.68;;;19.50;65.20;;;;;;4994456;28;20022;-14
2022/08/10 05:15:00;;;;;;;8.45;4.40;;;19.60;64.80;;;;;;4994632;28;20033;-14
2022/08/10 05:17:26;;;;;;;8.45;4.50;;;19.80;64.60;;;;;;4994418;28;20026;-14
2022/08/10 05:19:52;;;;;;;10.90;4.65;;;20.00;64.10;;;;;;4994452;28;20030;-14
2022/08/10 05:22:18;;;;;;;6.10;4.18;;;20.20;63.60;;;;;;4994211;28;20545;-15
2022/08/10 05:24:44;;;;;;;11.68;4.60;;;20.40;63.00;;;;;;4994380;28;20030;-14
2022/08/10 05:27:10;;;;;;;5.15;3.80;;;20.50;62.70;;;;;;4994322;28;20513;-14
2022/08/10 05:29:36;;;;;;;7.32;3.90;;;20.70;62.30;;;;;;4994415;28;20030;-14
2022/08/10 05:32:03;;;;;;;6.43;3.40;;;20.90;62.20;;;;;;4992617;28;20023;-14
2022/08/10 05:34:29;;;;;;;6.30;3.97;;;21.00;61.70;;;;;;4993723;28;20030;-14
2022/08/10 05:36:56;;;;;;;5.72;3.60;;;21.20;61.50;;;;;;4993898;28;20027;-15
2022/08/10 05:39:22;;;;;;;6.85;4.18;;;21.30;61.30;;;;;;4993870;28;20498;-14
2022/08/10 05:41:53;;;;;;;8.50;4.47;;;21.40;61.20;;;;;;4994132;28;20019;-13
2022/08/10 05:44:21;;;;;;;6.80;4.00;;;21.60;61.10;;;;;;4993667;28;20445;-15
2022/08/10 05:46:48;;;;;;;5.40;4.05;;;21.60;61.00;;;;;;4993971;28;20050;-15
2022/08/10 05:49:14;;;;;;;7.07;4.60;;;21.80;60.80;;;;;;4994045;28;20034;-14
2022/08/10 05:51:40;;;;;;;7.55;4.32;;;21.90;60.70;;;;;;4993839;28;20034;-15
2022/08/10 05:54:13;;;;;;;6.68;4.22;;;22.00;60.60;;;;;;4993980;28;20062;-14
2022/08/10 05:56:40;;;;;;;;;;;22.00;60.70;;;;;;4994498;28;20030;-16
2022/08/10 05:59:06;;;;;;;4.75;3.53;;;22.20;61.90;;;;;;4993677;28;19906;-15
2022/08/10 06:01:36;;;;;;;8.30;4.55;;;22.30;60.80;;;;;;4993321;28;20038;-14
2022/08/10 06:04:03;;;;;;;7.85;3.95;;;22.40;60.90;;;;;;4993618;28;20359;-14
2022/08/10 06:06:33;;;;;;;6.10;4.20;;;22.60;60.80;;;;;;4993652;28;20109;-14
2022/08/10 06:08:59;;;;;;;9.68;4.65;;;22.70;60.60;;;;;;4996863;28;20474;-14
2022/08/10 06:11:29;;;;;;;12.02;5.30;;;22.90;60.30;;;;;;4997512;28;20045;-14
2022/08/10 06:16:43;;;;;;;7.07;4.10;;;23.10;60.70;;;;;;4998025;28;20036;-14
2022/08/10 06:19:13;;;;;;;5.70;3.75;;;23.20;60.30;;;;;;4997449;28;20442;-14
2022/08/10 06:21:40;;;;;;;10.52;5.22;;;23.30;60.00;;;;;;4998128;28;20038;-14
2022/08/10 06:24:10;;;;;;;8.07;4.05;;;23.40;59.80;;;;;;4997738;28;20065;-15
2022/08/10 06:26:36;;;;;;;10.88;5.10;;;23.50;59.80;;;;;;4997117;28;20359;-15
2022/08/10 06:29:10;;;;;;;6.50;4.15;;;23.60;59.60;;;;;;4997373;28;20053;-15
2022/08/10 06:31:41;;;;;;;9.05;4.95;;;23.60;59.70;;;;;;4997084;28;20441;-14
2022/08/10 06:34:09;;;;;;;7.00;5.05;;;23.70;59.50;;;;;;4996039;28;20553;-15
2022/08/10 06:36:37;;;;;;;7.68;4.43;;;23.70;59.50;;;;;;4995727;28;20474;-14
2022/08/10 06:39:04;;;;;;;7.97;4.40;;;23.80;59.80;;;;;;4997099;28;20026;-13
2022/08/10 06:41:33;;;;;;;7.80;3.75;;;23.90;59.20;;;;;;4995871;28;20367;-13
2022/08/10 06:44:02;;;;;;;7.20;3.10;;;24.10;58.10;;;;;;4997361;28;20141;-13
2022/08/10 06:46:33;;;;;;;4.13;3.22;;;24.30;57.10;;;;;;4996728;28;20501;-14
2022/08/10 06:49:02;;;;;;;5.78;3.10;;;24.50;54.70;;;;;;4997641;28;20069;-14
2022/08/10 06:51:31;;;;;;;6.20;3.28;;;24.70;54.20;;;;;;4995597;28;20026;-15
2022/08/10 06:54:03;;;;;;;4.88;2.88;;;24.90;50.70;;;;;;4996935;28;20053;-14
2022/08/10 06:56:33;;;;;;;5.97;3.38;;;25.10;51.20;;;;;;4996658;28;20478;-14
2022/08/10 06:59:15;;;;;;;4.45;2.85;;;25.40;49.80;;;;;;4997045;28;20022;-13
2022/08/10 07:01:45;;;;;;;4.47;3.08;;;25.60;46.80;;;;;;4995310;28;20137;-14
2022/08/10 07:04:33;;;;;;;4.57;2.83;;;25.80;47.10;;;;;;4996842;28;20037;-14
2022/08/10 07:07:03;;;;;;;8.40;2.75;;;26.00;48.30;;;;;;4996043;28;20029;-14
2022/08/10 07:09:31;;;;;;;6.30;2.75;;;26.20;46.90;;;;;;4996556;28;20030;-15
2022/08/10 07:11:59;;;;;;;5.28;2.95;;;26.40;46.80;;;;;;4996515;28;20490;-14
2022/08/10 07:14:26;;;;;;;10.07;2.85;;;26.60;46.50;;;;;;4996537;28;20027;-15
2022/08/10 07:16:54;;;;;;;6.38;2.90;;;26.70;46.70;;;;;;4996815;28;20064;-14
2022/08/10 07:19:22;;;;;;;7.00;2.80;;;26.80;46.20;;;;;;4996159;28;20494;-14
2022/08/10 07:21:50;;;;;;;5.97;2.85;;;26.80;45.20;;;;;;4996527;28;20498;-14
2022/08/10 07:24:17;;;;;;;7.03;2.92;;;26.80;44.80;;;;;;4996361;28;20105;-14
2022/08/10 07:26:51;;;;;;;4.13;2.90;;;26.80;44.50;;;;;;4996445;28;20022;-14
2022/08/10 07:29:19;;;;;;;5.68;3.03;;;26.80;43.90;;;;;;4996214;28;20509;-14
2022/08/10 07:31:50;;;;;;;4.63;2.70;;;27.00;44.30;;;;;;4996258;28;20482;-14
2022/08/10 07:34:20;;;;;;;4.20;2.67;;;27.20;44.00;;;;;;4996075;28;20026;-14
2022/08/10 07:36:50;;;;;;;4.35;2.63;;;27.50;43.70;;;;;;4996357;28;20027;-14
2022/08/10 07:39:18;;;;;;;4.93;2.63;;;27.60;42.80;;;;;;4996033;28;20486;-14
2022/08/10 07:41:48;;;;;;;4.03;2.50;;;27.90;42.60;;;;;;4996281;28;20019;-14
2022/08/10 07:44:15;;;;;;;4.88;2.45;;;28.00;42.30;;;;;;4996048;28;20034;-13
2022/08/10 07:46:46;;;;;;;4.85;2.78;;;28.20;42.00;;;;;;4995786;28;20556;-13
2022/08/10 07:49:18;;;;;;;7.75;2.80;;;28.40;41.50;;;;;;4994706;28;20022;-13
2022/08/10 07:51:45;;;;;;;4.70;2.75;;;28.60;40.70;;;;;;4995981;28;20037;-13
2022/08/10 07:54:16;;;;;;;6.22;2.60;;;28.80;39.70;;;;;;4996045;28;20038;-13
2022/08/10 07:56:48;;;;;;;4.55;2.33;;;29.20;38.70;;;;;;4995978;28;20050;-13
2022/08/10 07:59:24;;;;;;;3.40;2.50;;;29.40;38.70;;;;;;4996019;28;20080;-13
2022/08/10 08:01:54;;;;;;;3.22;2.38;;;29.60;37.80;;;;;;4995572;28;20057;-14
2022/08/10 08:04:22;;;;;;;4.43;2.60;;;29.90;37.50;;;;;;4995372;28;20033;-13
2022/08/10 08:06:51;;;;;;;3.67;2.40;;;30.00;36.80;;;;;;4994274;28;20057;-13
2022/08/10 08:09:20;;;;;;;4.40;2.50;;;30.40;36.80;;;;;;4994240;28;20026;-14
2022/08/10 08:11:48;;;;;;;4.63;2.60;;;30.70;35.90;;;;;;4995202;28;20046;-14
2022/08/10 08:14:16;;;;;;;2.47;2.28;;;30.90;35.50;;;;;;4995172;28;20541;-14
2022/08/10 08:16:46;;;;;;;4.10;2.63;;;30.80;35.40;;;;;;4995238;28;20034;-13
2022/08/10 08:19:13;;;;;;;3.80;2.50;;;31.00;34.80;;;;;;5096730;22;20107;-18
2022/08/10 08:21:41;;;;;;;5.65;2.72;;;31.30;35.30;;;;;;5034844;28;20021;-18
2022/08/10 08:24:08;;;;;;;3.40;2.60;;;31.40;34.30;;;;;;5034578;28;20065;-17
2022/08/10 08:26:37;;;;;;;4.65;2.47;;;31.70;33.50;;;;;;5034653;28;20076;-17
2022/08/10 08:29:04;;;;;;;4.40;2.53;;;31.90;33.20;;;;;;5034453;28;20029;-16
2022/08/10 08:31:31;;;;;;;3.92;2.50;;;32.00;34.00;;;;;;5033497;28;20096;-17
2022/08/10 08:33:59;;;;;;;5.18;2.70;;;32.10;33.10;;;;;;5034249;28;20042;-17
2022/08/10 08:36:26;;;;;;;4.50;2.40;;;32.30;32.80;;;;;;5034368;28;20025;-19
2022/08/10 08:38:52;;;;;;;3.10;2.45;;;32.10;33.00;;;;;;5034754;28;20033;-18
2022/08/10 08:41:56;;;;;;;3.30;2.60;;;32.20;33.10;;;;;;5034587;28;20504;-19
2022/08/10 08:44:40;;;;;;;4.85;2.70;;;32.20;32.80;;;;;;5033976;28;20152;-18
2022/08/10 08:47:22;;;;;;;4.88;2.60;;;31.90;32.60;;;;;;5034809;28;20064;-18
2022/08/10 08:50:21;;;;;;;4.00;2.40;;;31.90;33.30;;;;;;5034066;28;20026;-20
2022/08/10 08:52:58;;;;;;;4.55;2.42;;;32.00;32.90;;;;;;5034729;28;20068;-16
2022/08/10 08:55:24;;;;;;;4.10;2.53;;;32.20;32.20;;;;;;5033980;28;20477;-17
2022/08/10 08:58:21;;;;;;;5.03;2.40;;;32.40;33.00;;;;;;5033889;28;20033;-16
2022/08/10 09:00:53;;;;;;;3.70;2.50;;;32.60;30.90;;;;;;5033934;28;20029;-18
2022/08/10 09:03:35;;;;;;;2.47;2.10;;;32.70;32.30;;;;;;5033784;28;20029;-17
2022/08/10 09:06:07;;;;;;;2.55;2.20;;;32.90;31.90;;;;;;5033883;28;20053;-17
2022/08/10 09:08:50;;;;;;;4.05;2.40;;;33.00;31.00;;;;;;5033793;28;20108;-19
2022/08/10 09:11:22;;;;;;;3.72;2.15;;;33.00;31.10;;;;;;5033659;28;20099;-17
2022/08/10 09:14:00;;;;;;;7.50;2.27;;;32.90;30.00;;;;;;5033855;28;20440;-17
2022/08/10 09:17:27;;;;;;;2.25;2.05;;;32.80;30.00;;;;;;5033724;28;20045;-17
2022/08/10 09:20:06;;;;;;;2.50;2.00;;;32.80;30.20;;;;;;4972812;28;20521;-16
2022/08/10 09:23:18;;;;;;;4.72;2.05;;;33.20;30.90;;;;;;4972598;28;20027;-17
2022/08/10 09:25:53;;;;;;;3.50;2.25;;;33.20;30.00;;;;;;4994195;28;20117;-17
2022/08/10 09:28:30;;;;;;;4.65;2.38;;;33.20;28.60;;;;;;4994216;28;20065;-16
2022/08/10 09:30:58;;;;;;;3.08;2.10;;;33.30;29.60;;;;;;4993996;28;20038;-19
2022/08/10 09:33:50;;;;;;;3.83;2.20;;;33.30;29.80;;;;;;4993914;28;20076;-16
2022/08/10 09:37:07;;;;;;;3.45;2.03;;;33.50;30.20;;;;;;4994074;28;20034;-16
2022/08/10 09:39:47;;;;;;;2.45;2.25;;;33.70;28.00;;;;;;4984953;28;20038;-17
2022/08/10 09:42:24;;;;;;;2.80;2.25;;;33.80;28.70;;;;;;4993504;28;20037;-20
2022/08/10 09:45:09;;;;;;;1.90;1.70;;;33.90;27.80;;;;;;4994216;28;20078;-18
2022/08/10 09:48:05;;;;;;;2.63;2.30;;;34.00;28.30;;;;;;4993980;28;20085;-16
2022/08/10 09:50:55;;;;;;;3.88;1.90;;;34.00;28.40;;;;;;4993659;28;20030;-16
2022/08/10 09:53:59;;;;;;;3.30;2.10;;;34.00;28.20;;;;;;4993823;28;20490;-17
2022/08/10 09:57:16;;;;;;;4.32;1.98;;;34.00;28.50;;;;;;4992829;28;20042;-17
2022/08/10 10:00:07;;;;;;;4.85;2.00;;;34.20;28.80;;;;;;4981919;28;20045;-16
2022/08/10 10:02:51;;;;;;;3.58;1.85;;;34.70;28.20;;;;;;4993503;28;20058;-17
2022/08/10 10:05:43;;;;;;;5.05;2.45;;;34.80;28.20;;;;;;4993716;28;20037;-16
2022/08/10 10:08:30;;;;;;;2.95;2.00;;;34.90;27.60;;;;;;4993994;28;20089;-17
2022/08/10 10:11:07;;;;;;;2.75;2.15;;;35.10;27.80;;;;;;4993924;28;20069;-17
2022/08/10 10:13:42;;;;;;;3.38;2.05;;;35.20;28.00;;;;;;4994024;28;20038;-17
2022/08/10 10:16:27;;;;;;;2.95;2.13;;;35.50;28.10;;;;;;4993637;28;20085;-18
2022/08/10 10:19:03;;;;;;;3.78;2.25;;;35.90;28.00;;;;;;5019582;28;20396;-18
2022/08/10 10:21:54;;;;;;;4.18;2.35;;;36.30;27.80;;;;;;5032881;28;20039;-17
2022/08/10 10:24:40;;;;;;;4.90;2.38;;;36.50;27.20;;;;;;5032996;28;20022;-17
2022/08/10 10:27:14;;;;;;;3.92;2.17;;;36.60;26.40;;;;;;5032843;28;20530;-17
2022/08/10 10:29:59;;;;;;;2.22;2.03;;;36.60;26.80;;;;;;5032910;28;20018;-17
2022/08/10 10:32:52;;;;;;;3.50;2.30;;;36.80;26.40;;;;;;5032506;28;20033;-16
2022/08/10 10:35:26;;;;;;;4.15;2.30;;;36.70;25.60;;;;;;5032758;28;20476;-17
2022/08/10 10:37:54;;;;;;;4.80;2.28;;;36.80;26.60;;;;;;5031564;28;20029;-17
2022/08/10 10:40:24;;;;;;;2.92;1.85;;;36.80;27.20;;;;;;5032590;28;20420;-16
2022/08/10 10:43:40;;;;;;;3.28;2.25;;;36.70;27.10;;;;;;5032723;28;20028;-17
2022/08/10 10:46:12;;;;;;;3.53;2.10;;;37.10;25.70;;;;;;5032893;28;20022;-18
2022/08/10 10:48:51;;;;;;;6.63;2.47;;;37.50;26.00;;;;;;5032746;28;20026;-18
2022/08/10 10:51:25;;;;;;;4.32;2.10;;;37.90;25.20;;;;;;5032470;28;20504;-17
2022/08/10 10:54:20;;;;;;;3.05;2.10;;;38.30;26.00;;;;;;5034125;28;20029;-17
2022/08/10 10:56:46;;;;;;;2.95;2.10;;;38.60;24.20;;;;;;5036588;28;20029;-17
2022/08/10 10:59:29;;;;;;;5.65;2.30;;;38.50;25.30;;;;;;5036156;28;20510;-16
2022/08/10 11:02:31;;;;;;;2.28;1.90;;;38.10;24.50;;;;;;5036396;28;20044;-17
2022/08/10 11:05:32;;;;;;;3.22;2.00;;;38.00;24.10;;;;;;5036066;28;20108;-17
2022/08/10 11:08:01;;;;;;;3.40;2.20;;;38.10;25.20;;;;;;5023125;28;20497;-18
2022/08/10 11:10:34;;;;;;;3.72;1.95;;;38.40;24.80;;;;;;5035558;28;20064;-17
2022/08/10 11:13:14;;;;;;;3.80;2.20;;;38.70;24.50;;;;;;5035948;28;20021;-16
2022/08/10 11:16:05;;;;;;;4.90;2.10;;;39.20;23.40;;;;;;5036201;28;20075;-17
2022/08/10 11:18:32;;;;;;;4.55;2.15;;;39.40;23.30;;;;;;5035380;28;20128;-17
2022/08/10 11:21:31;;;;;;;2.30;2.00;;;39.30;24.10;;;;;;5036024;28;20099;-16
2022/08/10 11:24:20;;;;;;;2.88;2.10;;;39.20;24.00;;;;;;5034548;28;20151;-17
2022/08/10 11:27:09;;;;;;;5.63;2.20;;;38.90;24.00;;;;;;5036161;28;20022;-16
2022/08/10 11:29:50;;;;;;;3.13;2.00;;;38.40;24.90;;;;;;5035658;28;20397;-16
2022/08/10 11:32:39;;;;;;;2.97;2.17;;;38.20;25.20;;;;;;5035378;28;20041;-17
2022/08/10 11:35:11;;;;;;;3.72;2.08;;;38.00;23.90;;;;;;5035806;28;20079;-17
2022/08/10 11:37:48;;;;;;;3.05;1.95;;;38.30;25.00;;;;;;5035706;28;20025;-16
2022/08/10 11:40:45;;;;;;;2.95;2.00;;;38.50;24.60;;;;;;5035455;28;20068;-17
2022/08/10 11:43:20;;;;;;;3.97;2.13;;;39.10;23.80;;;;;;5034841;28;20030;-18
2022/08/10 11:46:02;;;;;;;3.60;1.92;;;39.30;23.90;;;;;;5035688;28;20029;-16
2022/08/10 11:48:47;;;;;;;3.38;2.28;;;39.70;23.50;;;;;;5034987;28;20485;-16
2022/08/10 11:51:33;;;;;;;2.10;2.00;;;40.20;23.70;;;;;;5035209;28;20523;-17
2022/08/10 11:54:24;;;;;;;3.35;2.10;;;40.30;22.70;;;;;;5035443;28;20029;-18
2022/08/10 11:56:53;;;;;;;2.50;2.00;;;40.60;22.80;;;;;;5035433;28;20084;-17
2022/08/10 12:02:12;;;;;;;2.20;2.00;;;40.90;21.90;;;;;;5035351;28;20083;-17
2022/08/10 12:04:51;;;;;;;2.92;2.20;;;40.70;22.50;;;;;;5035035;28;20041;-17
2022/08/10 12:07:20;;;;;;;4.13;2.05;;;40.40;22.50;;;;;;5035283;28;20029;-17
2022/08/10 12:09:48;;;;;;;3.42;1.77;;;40.40;22.80;;;;;;5034756;28;20022;-16
2022/08/10 12:12:16;;;;;;;2.70;2.00;;;40.70;22.50;;;;;;5034858;28;20045;-18
2022/08/10 12:15:14;;;;;;;2.28;1.80;;;40.70;22.80;;;;;;5035097;28;20030;-17
2022/08/10 12:17:48;;;;;;;2.65;1.90;;;40.60;22.50;;;;;;5034735;28;20056;-18
2022/08/10 12:20:25;;;;;;;2.53;1.98;;;40.20;22.50;;;;;;5034809;28;20083;-16
2022/08/10 12:23:18;;;;;;;2.67;1.80;;;40.40;22.70;;;;;;5035166;28;20030;-17
2022/08/10 12:25:52;;;;;;;2.78;1.77;;;40.50;22.40;;;;;;5034890;28;20018;-17
2022/08/10 12:28:36;;;;;;;2.83;1.90;;;40.50;21.90;;;;;;5034453;28;20022;-17
2022/08/10 12:31:07;;;;;;;1.65;1.55;;;40.90;22.40;;;;;;5034739;28;20044;-16
2022/08/10 12:33:55;;;;;;;2.47;1.60;;;41.30;21.80;;;;;;5034411;28;20037;-17
2022/08/10 12:36:32;;;;;;;3.50;1.73;;;41.70;21.20;;;;;;5034187;28;20359;-17
2022/08/10 12:39:12;;;;;;;3.85;1.90;;;41.80;20.70;;;;;;5034296;28;20061;-17
2022/08/10 12:42:06;;;;;;;2.05;1.85;;;40.90;20.80;;;;;;5034491;28;20025;-16
2022/08/10 12:44:43;;;;;;;1.77;1.67;;;40.90;21.10;;;;;;5034273;28;20033;-17
2022/08/10 12:47:30;;;;;;;3.50;1.88;;;40.90;21.70;;;;;;5033268;28;20078;-18
2022/08/10 12:50:18;;;;;;;4.32;1.85;;;41.20;21.40;;;;;;5034247;28;20496;-18
2022/08/10 12:53:08;;;;;;;3.22;2.00;;;41.20;21.40;;;;;;5034071;28;20033;-17
2022/08/10 12:55:37;;;;;;;2.03;1.50;;;41.50;20.30;;;;;;5034062;28;20116;-17
2022/08/10 12:58:06;;;;;;;4.55;1.88;;;41.70;20.40;;;;;;5034275;28;20040;-17
2022/08/10 13:00:34;;;;;;;1.90;1.80;;;41.70;20.50;;;;;;5033729;28;20086;-17
2022/08/10 13:03:02;;;;;;;5.20;1.95;;;41.90;20.50;;;;;;5069575;23;20050;-15
2022/08/10 13:05:32;;;;;;;2.60;1.90;;;42.10;20.60;;;;;;5014113;28;20060;-14
2022/08/10 13:10:53;;;;;;;2.10;1.90;;;41.90;20.70;;;;;;5014192;28;20088;-14
2022/08/10 13:13:24;;;;;;;2.10;1.88;;;42.20;20.50;;;;;;5014278;28;20021;-14
2022/08/10 13:15:56;;;;;;;1.95;1.48;;;42.40;20.60;;;;;;5013952;28;20037;-14
2022/08/10 13:18:29;;;;;;;1.77;1.67;;;42.60;20.10;;;;;;5013506;28;20026;-14
2022/08/10 13:21:02;;;;;;;2.25;1.70;;;42.70;20.30;;;;;;5013777;28;20041;-13
2022/08/10 13:23:30;;;;;;;2.65;1.58;;;42.90;20.20;;;;;;5014479;28;20044;-14
2022/08/10 13:25:59;;;;;;;2.22;2.03;;;42.90;19.80;;;;;;5013884;28;20113;-14
2022/08/10 13:28:51;;;;;;;2.55;1.80;;;42.90;20.00;;;;;;5013435;28;20058;-14
2022/08/10 13:31:21;;;;;;;1.83;1.73;;;42.80;19.70;;;;;;5013789;28;20065;-13
2022/08/10 13:33:53;;;;;;;1.50;1.40;;;42.80;19.60;;;;;;5013685;28;20049;-13